Time;durP1;ratioP1;P1;durP2;ratioP2;P2;SDS_P1;SDS_P2;PMS_P1;PMS_P2;Temp;Humidity;BMP_temperature;BMP_pressure;BME280_temperature;BME280_humidity;BME280_pressure;Samples;Min_cycle;Max_cycle;Signal;HPM_P1;HPM_P2
2024/01/22 00:00:56;;;;;;;14.80;5.50;;;;;;;0.08;79.38;99917.07;107332;1279;71723;-59
2024/01/22 00:03:46;;;;;;;15.00;5.50;;;;;;;0.07;79.54;99890.75;107122;1280;57315;-61
2024/01/22 00:06:39;;;;;;;19.00;6.00;;;;;;;0.05;79.95;99887.70;107131;1280;58777;-60
2024/01/22 00:09:27;;;;;;;15.40;5.60;;;;;;;0.06;80.30;99899.02;107360;1280;72990;-60
2024/01/22 00:12:15;;;;;;;14.70;5.70;;;;;;;0.07;80.56;99913.64;107239;1280;67318;-61
2024/01/22 00:15:04;;;;;;;15.00;5.30;;;;;;;0.06;80.46;99907.23;107361;1279;71459;-61
2024/01/22 00:17:52;;;;;;;16.90;5.80;;;;;;;0.06;80.59;99887.31;107286;1279;59598;-64
2024/01/22 00:20:40;;;;;;;12.20;5.30;;;;;;;0.07;80.62;99885.70;107314;1279;59988;-62
2024/01/22 00:23:28;;;;;;;12.50;4.90;;;;;;;0.07;80.82;99881.86;107387;1280;71860;-61
2024/01/22 00:26:16;;;;;;;14.50;5.70;;;;;;;0.07;80.91;99891.79;106629;1279;1002306;-63
2024/01/22 00:29:04;;;;;;;12.80;4.90;;;;;;;0.01;81.15;99882.44;106606;1280;1002709;-61
2024/01/22 00:31:52;;;;;;;10.40;4.20;;;;;;;0.05;80.89;99877.24;107256;1280;57297;-62
2024/01/22 00:34:40;;;;;;;16.10;5.60;;;;;;;0.05;81.01;99867.98;107139;1279;61324;-62
2024/01/22 00:37:28;;;;;;;16.40;6.00;;;;;;;0.06;80.92;99870.59;107289;1280;73104;-61
2024/01/22 00:40:15;;;;;;;16.70;5.50;;;;;;;0.06;80.84;99860.96;107347;1280;66898;-62
2024/01/22 00:43:03;;;;;;;16.40;5.80;;;;;;;0.05;80.64;99848.81;107381;1280;70262;-62
2024/01/22 00:45:54;;;;;;;15.40;6.00;;;;;;;0.06;80.53;99852.27;107298;1280;60118;-63
2024/01/22 00:48:42;;;;;;;13.20;5.10;;;;;;;0.07;80.26;99849.41;107377;1280;61118;-62
2024/01/22 00:51:30;;;;;;;14.30;4.70;;;;;;;0.08;79.47;99846.95;107348;1280;74008;-62
2024/01/22 00:54:19;;;;;;;15.70;5.50;;;;;;;0.10;79.55;99844.61;107381;1279;67683;-61
2024/01/22 00:57:07;;;;;;;17.10;5.40;;;;;;;0.10;79.35;99840.94;107351;1280;72872;-62
2024/01/22 00:59:55;;;;;;;13.50;4.90;;;;;;;0.09;79.49;99837.48;107334;1280;57582;-61
2024/01/22 01:02:43;;;;;;;12.50;5.20;;;;;;;0.07;79.40;99829.69;107239;1280;60353;-61
2024/01/22 01:05:31;;;;;;;15.70;5.50;;;;;;;0.05;79.47;99830.65;107393;1279;71817;-62
2024/01/22 01:08:19;;;;;;;16.70;5.60;;;;;;;0.02;79.47;99827.45;107351;1279;66827;-61
2024/01/22 01:11:09;;;;;;;15.30;5.60;;;;;;;0.01;79.56;99830.31;107347;1280;72762;-62
2024/01/22 01:13:58;;;;;;;15.10;5.10;;;;;;;-0.02;79.67;99824.64;107225;1279;57333;-61
2024/01/22 01:16:46;;;;;;;13.40;5.50;;;;;;;-0.09;79.58;99823.52;107343;1280;61353;-62
2024/01/22 01:19:35;;;;;;;15.10;5.20;;;;;;;-0.12;79.84;99819.95;107372;1279;70706;-61
2024/01/22 01:22:23;;;;;;;12.80;4.70;;;;;;;-0.16;80.03;99816.98;107169;1280;67770;-62
2024/01/22 01:25:12;;;;;;;12.00;4.10;;;;;;;-0.20;80.13;99814.67;107358;1280;72343;-62
2024/01/22 01:27:59;;;;;;;10.40;4.90;;;;;;;-0.23;80.27;99806.59;107377;1280;58006;-62
2024/01/22 01:30:48;;;;;;;12.20;4.60;;;;;;;-0.27;80.28;99808.85;106622;1280;1002319;-64
2024/01/22 01:33:36;;;;;;;12.30;4.50;;;;;;;-0.28;80.52;99797.54;107380;1279;73290;-63
2024/01/22 01:36:23;;;;;;;12.40;4.70;;;;;;;-0.31;80.92;99785.96;107359;1280;67726;-62
2024/01/22 01:39:12;;;;;;;11.40;4.20;;;;;;;-0.31;81.13;99787.00;106608;1280;1002337;-60
2024/01/22 01:42:00;;;;;;;11.80;5.00;;;;;;;-0.32;81.04;99774.70;107184;1281;57432;-62
2024/01/22 01:44:51;;;;;;;12.50;4.90;;;;;;;-0.32;81.04;99762.98;107126;1281;60190;-61
2024/01/22 01:47:41;;;;;;;13.30;4.80;;;;;;;-0.30;81.30;99749.29;107161;1279;74113;-61
2024/01/22 01:50:29;;;;;;;13.50;5.30;;;;;;;-0.29;81.17;99742.45;107231;1280;66513;-61
2024/01/22 01:53:17;;;;;;;14.80;5.90;;;;;;;-0.28;81.14;99744.71;107266;1280;73708;-61
2024/01/22 01:56:06;;;;;;;12.50;4.70;;;;;;;-0.27;80.75;99739.60;106565;1280;1002253;-61
2024/01/22 01:58:55;;;;;;;13.20;5.10;;;;;;;-0.25;80.55;99731.52;106582;1279;1003057;-61
2024/01/22 02:01:43;;;;;;;13.50;4.90;;;;;;;-0.25;80.59;99728.17;107319;1279;71592;-60
2024/01/22 02:04:31;;;;;;;14.80;5.80;;;;;;;-0.26;80.54;99734.67;107075;1279;67911;-61
2024/01/22 02:07:19;;;;;;;13.90;5.70;;;;;;;-0.26;80.43;99734.52;107272;1279;73703;-61
2024/01/22 02:10:12;;;;;;;11.30;4.30;;;;;;;-0.26;80.23;99720.04;107379;1280;58045;-61
2024/01/22 02:13:04;;;;;;;11.70;4.40;;;;;;;-0.27;80.46;99717.98;107221;1279;60428;-61
2024/01/22 02:15:53;;;;;;;13.10;4.90;;;;;;;-0.27;80.36;99727.23;107249;1280;73141;-61
2024/01/22 02:18:41;;;;;;;12.00;5.10;;;;;;;-0.28;80.20;99724.31;107200;1280;66403;-61
2024/01/22 02:21:29;;;;;;;12.60;4.40;;;;;;;-0.28;79.82;99716.95;106583;1280;1003034;-62
2024/01/22 02:24:17;;;;;;;14.70;5.30;;;;;;;-0.28;79.18;99717.17;107331;1279;59677;-61
2024/01/22 02:27:05;;;;;;;11.40;4.80;;;;;;;-0.29;78.95;99711.42;106617;1279;1002453;-61
2024/01/22 02:29:53;;;;;;;14.30;5.30;;;;;;;-0.29;78.40;99711.09;107377;1279;72754;-61
2024/01/22 02:32:40;;;;;;;11.50;4.90;;;;;;;-0.29;77.81;99699.07;107393;1280;66446;-61
2024/01/22 02:35:28;;;;;;;11.20;4.10;;;;;;;-0.30;77.67;99685.32;107373;1280;72570;-61
2024/01/22 02:38:16;;;;;;;12.20;4.30;;;;;;;-0.31;77.63;99691.28;107300;1280;58179;-61
2024/01/22 02:41:05;;;;;;;11.10;4.10;;;;;;;-0.32;77.27;99684.52;107133;1280;59616;-61
2024/01/22 02:43:53;;;;;;;11.80;4.60;;;;;;;-0.31;77.00;99676.45;107034;1279;71502;-62
2024/01/22 02:46:41;;;;;;;10.70;3.90;;;;;;;-0.33;76.57;99664.17;106597;1280;1002328;-61
2024/01/22 02:49:29;;;;;;;13.20;5.00;;;;;;;-0.28;76.56;99669.91;107362;1280;71567;-61
2024/01/22 02:52:17;;;;;;;12.30;5.30;;;;;;;-0.27;76.66;99664.98;105861;1280;1002894;-61
2024/01/22 02:55:05;;;;;;;12.60;4.90;;;;;;;-0.29;76.91;99657.22;107369;1279;59024;-62
2024/01/22 02:57:53;;;;;;;12.40;4.70;;;;;;;-0.28;76.79;99665.38;107386;1280;71863;-61
2024/01/22 03:00:41;;;;;;;12.70;5.80;;;;;;;-0.27;76.82;99659.03;107055;1279;67790;-62
2024/01/22 03:03:29;;;;;;;13.20;4.80;;;;;;;-0.25;76.66;99642.73;107301;1280;71136;-62
2024/01/22 03:06:17;;;;;;;11.40;4.50;;;;;;;-0.24;76.66;99631.57;107271;1279;57328;-62
2024/01/22 03:09:05;;;;;;;10.80;4.80;;;;;;;-0.22;76.86;99618.59;107345;1280;60074;-65
2024/01/22 03:11:53;;;;;;;9.60;3.80;;;;;;;-0.21;77.09;99608.40;106417;1280;1002229;-63
2024/01/22 03:14:41;;;;;;;12.10;4.50;;;;;;;-0.18;77.37;99610.91;107334;1279;68094;-62
2024/01/22 03:17:29;;;;;;;10.90;4.50;;;;;;;-0.15;77.21;99606.42;107259;1279;72717;-62
2024/01/22 03:20:17;;;;;;;13.80;4.80;;;;;;;-0.14;76.97;99600.11;106586;1279;1002409;-63
2024/01/22 03:23:05;;;;;;;11.30;4.10;;;;;;;-0.12;77.18;99593.23;107374;1279;60167;-62
2024/01/22 03:25:53;;;;;;;10.50;3.90;;;;;;;-0.10;77.55;99591.58;106613;1279;1002190;-64
2024/01/22 03:28:41;;;;;;;9.90;4.40;;;;;;;-0.09;77.80;99574.46;107315;1279;69325;-62
2024/01/22 03:31:30;;;;;;;12.10;5.20;;;;;;;-0.08;77.69;99570.77;107291;1280;72623;-64
2024/01/22 03:34:18;;;;;;;11.40;4.70;;;;;;;-0.07;77.97;99561.29;107381;1280;57751;-63
2024/01/22 03:37:06;;;;;;;15.80;5.60;;;;;;;-0.05;78.40;99568.15;107176;1280;60517;-62
2024/01/22 03:39:54;;;;;;;13.00;4.80;;;;;;;-0.03;78.53;99555.88;107385;1280;73166;-61
2024/01/22 03:42:41;;;;;;;12.50;4.80;;;;;;;-0.02;78.70;99536.10;107363;1280;67651;-62
2024/01/22 03:45:29;;;;;;;9.00;3.70;;;;;;;0.02;79.14;99529.73;107269;1279;72718;-62
2024/01/22 03:48:17;;;;;;;14.10;6.10;;;;;;;0.03;78.89;99517.10;107312;1279;57334;-65
2024/01/22 03:51:05;;;;;;;12.60;5.50;;;;;;;0.05;79.11;99512.48;107356;1279;60367;-61
2024/01/22 03:53:54;;;;;;;11.20;4.70;;;;;;;0.08;79.28;99512.31;107348;1280;74065;-61
2024/01/22 03:56:43;;;;;;;12.90;5.10;;;;;;;0.10;79.54;99507.02;106609;1279;1002787;-63
2024/01/22 03:59:31;;;;;;;13.80;4.90;;;;;;;0.13;79.92;99496.06;107074;1281;74006;-61
2024/01/22 04:02:19;;;;;;;10.70;4.10;;;;;;;0.16;80.06;99481.62;106321;1281;1002277;-62
2024/01/22 04:05:07;;;;;;;13.20;5.00;;;;;;;0.18;80.48;99478.95;107051;1281;60087;-63
2024/01/22 04:07:56;;;;;;;10.00;4.10;;;;;;;0.19;80.53;99466.32;107270;1281;72774;-62
2024/01/22 04:10:44;;;;;;;11.90;5.30;;;;;;;0.23;80.68;99464.25;107253;1281;66543;-62
2024/01/22 04:13:32;;;;;;;13.10;5.10;;;;;;;0.25;80.78;99465.17;107087;1281;71684;-61
2024/01/22 04:16:22;;;;;;;10.80;4.80;;;;;;;0.27;80.46;99460.20;107061;1281;57915;-63
2024/01/22 04:19:09;;;;;;;12.80;5.40;;;;;;;0.31;80.72;99461.77;107145;1281;58815;-62
2024/01/22 04:21:57;;;;;;;11.80;4.70;;;;;;;0.33;80.55;99462.92;106300;1281;1002895;-62
2024/01/22 04:24:45;;;;;;;11.10;4.60;;;;;;;0.30;80.85;99455.52;107123;1281;67955;-60
2024/01/22 04:27:34;;;;;;;11.30;4.10;;;;;;;0.37;80.76;99457.33;107110;1281;72438;-64
2024/01/22 04:30:22;;;;;;;9.80;4.10;;;;;;;0.37;80.82;99450.69;107205;1281;57469;-61
2024/01/22 04:33:09;;;;;;;12.70;5.00;;;;;;;0.37;81.07;99445.27;106893;1281;59085;-63
2024/01/22 04:35:57;;;;;;;12.60;5.80;;;;;;;0.37;81.43;99442.12;107248;1281;74032;-62
2024/01/22 04:38:45;;;;;;;13.50;5.30;;;;;;;0.38;81.67;99442.08;107149;1281;69255;-63
2024/01/22 04:41:33;;;;;;;12.50;4.50;;;;;;;0.40;81.76;99438.86;107078;1281;70988;-62
2024/01/22 04:44:21;;;;;;;12.10;5.40;;;;;;;0.41;82.07;99437.60;107183;1281;57353;-63
2024/01/22 04:47:09;;;;;;;13.50;5.20;;;;;;;0.42;82.35;99425.16;106487;1281;1015608;-64
2024/01/22 04:49:57;;;;;;;16.90;4.60;;;;;;;0.43;82.79;99415.69;106116;1281;1002579;-62
2024/01/22 04:52:45;;;;;;;9.50;4.20;;;;;;;0.46;82.44;99411.89;107259;1281;66124;-61
2024/01/22 04:55:33;;;;;;;12.10;5.20;;;;;;;0.47;82.51;99394.52;106990;1281;71144;-62
2024/01/22 04:58:24;;;;;;;14.30;5.60;;;;;;;0.49;82.45;99413.48;107012;1281;57564;-62
2024/01/22 05:01:12;;;;;;;13.90;4.60;;;;;;;0.50;82.78;99403.15;107244;1281;59350;-62
2024/01/22 05:04:00;;;;;;;11.50;4.50;;;;;;;0.51;82.79;99401.16;106318;1281;1002139;-61
2024/01/22 05:06:48;;;;;;;12.50;5.20;;;;;;;0.51;82.66;99387.71;107285;1281;67959;-63
2024/01/22 05:09:36;;;;;;;12.60;5.10;;;;;;;0.52;82.88;99374.93;107072;1281;71736;-63
2024/01/22 05:12:26;;;;;;;10.30;4.50;;;;;;;0.54;82.97;99359.81;106928;1281;57794;-66
2024/01/22 05:15:15;;;;;;;10.80;4.40;;;;;;;0.54;82.84;99361.23;107203;1281;58977;-62
2024/01/22 05:18:04;;;;;;;12.70;5.20;;;;;;;0.56;83.03;99385.76;107091;1281;72848;-68
2024/01/22 05:20:53;;;;;;;15.90;5.10;;;;;;;0.58;83.15;99390.02;107061;1281;66469;-63
2024/01/22 05:23:42;;;;;;;13.10;5.20;;;;;;;0.58;82.93;99391.05;107212;1281;71418;-64
2024/01/22 05:26:30;;;;;;;12.70;4.80;;;;;;;0.60;83.20;99421.53;107142;1281;57366;-62
2024/01/22 05:29:18;;;;;;;13.60;5.50;;;;;;;0.60;83.36;99406.17;107202;1281;60093;-62
2024/01/22 05:32:06;;;;;;;14.30;5.90;;;;;;;0.62;83.50;99399.27;107140;1280;72914;-61
2024/01/22 05:34:54;;;;;;;15.70;6.00;;;;;;;0.64;83.65;99381.16;107123;1280;66579;-61
2024/01/22 05:37:42;;;;;;;10.50;4.50;;;;;;;0.64;83.76;99356.23;107176;1280;72294;-62
2024/01/22 05:40:31;;;;;;;12.40;5.20;;;;;;;0.64;83.59;99349.58;107302;1280;60195;-62
2024/01/22 05:43:18;;;;;;;14.60;5.50;;;;;;;0.65;83.82;99350.89;107267;1280;60249;-61
2024/01/22 05:46:07;;;;;;;18.80;7.50;;;;;;;0.70;84.11;99328.50;107345;1280;73002;-60
2024/01/22 05:48:56;;;;;;;12.50;4.80;;;;;;;0.73;84.02;99330.83;107315;1280;66197;-62
2024/01/22 05:51:44;;;;;;;10.00;4.50;;;;;;;0.76;84.09;99328.92;106377;1281;1002876;-62
2024/01/22 05:54:32;;;;;;;14.10;5.70;;;;;;;0.79;83.96;99310.62;107041;1280;57700;-63
2024/01/22 05:57:20;;;;;;;15.60;5.40;;;;;;;0.81;84.11;99297.25;107118;1280;58913;-63
2024/01/22 06:00:09;;;;;;;15.20;5.70;;;;;;;0.82;84.16;99285.83;107028;1280;73949;-63
2024/01/22 06:03:00;;;;;;;13.80;4.90;;;;;;;0.83;84.38;99277.02;107328;1280;66627;-64
2024/01/22 06:05:48;;;;;;;12.00;4.50;;;;;;;0.85;84.46;99262.45;107290;1280;72464;-63
2024/01/22 06:08:36;;;;;;;14.10;5.20;;;;;;;0.89;84.48;99269.44;107181;1281;58855;-61
2024/01/22 06:11:26;;;;;;;16.50;5.50;;;;;;;0.92;84.71;99278.21;107298;1281;58744;-62
2024/01/22 06:14:13;;;;;;;12.90;5.00;;;;;;;0.94;84.91;99258.33;107208;1281;73760;-63
2024/01/22 06:17:01;;;;;;;12.20;5.30;;;;;;;0.96;85.08;99258.94;107090;1281;69237;-63
2024/01/22 06:19:49;;;;;;;10.30;3.90;;;;;;;0.98;85.26;99244.33;107175;1281;72735;-62
2024/01/22 06:22:37;;;;;;;12.20;4.50;;;;;;;1.01;85.06;99224.95;107169;1281;57435;-63
2024/01/22 06:25:25;;;;;;;11.60;4.80;;;;;;;1.05;85.14;99247.80;107157;1281;60541;-64
2024/01/22 06:28:14;;;;;;;11.40;4.40;;;;;;;1.09;85.25;99269.80;107038;1281;73765;-61
2024/01/22 06:31:03;;;;;;;11.80;4.70;;;;;;;1.10;85.26;99258.73;107187;1281;68052;-63
2024/01/22 06:33:50;;;;;;;11.50;3.90;;;;;;;1.11;84.79;99259.20;107191;1281;72838;-60
2024/01/22 06:36:38;;;;;;;14.80;5.30;;;;;;;1.12;84.82;99249.73;107160;1281;57747;-61
2024/01/22 06:39:26;;;;;;;13.20;5.00;;;;;;;1.12;84.93;99243.44;107182;1281;60508;-61
2024/01/22 06:42:14;;;;;;;14.00;5.40;;;;;;;1.12;85.24;99238.55;106481;1281;1003049;-66
2024/01/22 06:45:14;;;;;;;13.20;5.10;;;;;;;1.14;85.45;99238.80;107147;1280;68338;-69
2024/01/22 06:48:03;;;;;;;13.10;5.00;;;;;;;1.16;85.35;99206.55;107268;1280;72466;-66
2024/01/22 06:50:55;;;;;;;13.20;5.90;;;;;;;1.21;85.63;99201.95;107078;1280;57997;-66
2024/01/22 06:53:44;;;;;;;15.60;4.50;;;;;;;1.22;85.18;99210.07;107177;1280;61115;-69
2024/01/22 06:56:32;;;;;;;12.40;4.80;;;;;;;1.22;85.04;99212.70;107233;1280;74126;-62
2024/01/22 06:59:20;;;;;;;13.10;5.30;;;;;;;1.20;85.08;99204.60;107239;1281;67843;-62
2024/01/22 07:02:07;;;;;;;10.50;4.40;;;;;;;1.19;85.38;99197.97;107226;1281;72391;-65
2024/01/22 07:04:55;;;;;;;13.10;5.60;;;;;;;1.19;85.26;99197.64;107073;1281;57308;-61
2024/01/22 07:07:44;;;;;;;14.20;5.30;;;;;;;1.19;85.67;99196.73;107175;1281;58080;-63
2024/01/22 07:10:32;;;;;;;13.90;5.60;;;;;;;1.18;85.57;99194.73;107095;1281;73017;-66
2024/01/22 07:13:22;;;;;;;12.10;5.10;;;;;;;1.22;85.82;99186.88;107218;1280;67660;-61
2024/01/22 07:16:09;;;;;;;13.30;4.90;;;;;;;1.20;85.96;99176.30;107234;1281;71675;-64
2024/01/22 07:18:57;;;;;;;13.00;4.80;;;;;;;1.24;85.96;99175.38;107103;1280;57718;-60
2024/01/22 07:21:48;;;;;;;9.10;3.60;;;;;;;1.26;86.17;99181.91;107359;1280;58862;-62
2024/01/22 07:24:37;;;;;;;12.60;4.50;;;;;;;1.27;86.22;99169.27;107321;1279;73945;-60
2024/01/22 07:27:24;;;;;;;11.40;5.00;;;;;;;1.29;86.39;99164.81;107455;1280;66694;-61
2024/01/22 07:30:13;;;;;;;15.20;6.20;;;;;;;1.31;86.35;99163.61;107208;1281;71877;-63
2024/01/22 07:33:03;;;;;;;12.60;7.70;;;;;;;1.32;86.15;99150.61;107077;1280;57474;-63
2024/01/22 07:35:51;;;;;;;9.50;4.30;;;;;;;1.35;86.00;99132.66;107367;1280;59341;-62
2024/01/22 07:38:39;;;;;;;13.90;4.60;;;;;;;1.36;86.11;99129.98;107282;1279;73072;-61
2024/01/22 07:41:28;;;;;;;12.30;5.10;;;;;;;1.40;85.96;99125.22;107384;1280;68689;-63
2024/01/22 07:44:15;;;;;;;11.40;4.70;;;;;;;1.44;85.75;99104.92;107400;1280;72451;-60
2024/01/22 07:47:03;;;;;;;12.50;4.80;;;;;;;1.45;85.60;99102.41;107183;1285;57336;-62
2024/01/22 07:49:51;;;;;;;10.40;4.60;;;;;;;1.49;85.86;99100.06;107406;1280;59296;-64
2024/01/22 07:52:40;;;;;;;11.80;5.30;;;;;;;1.52;85.53;99093.27;107249;1280;73073;-63
2024/01/22 07:55:29;;;;;;;14.90;6.10;;;;;;;1.58;85.66;99095.38;107272;1280;68109;-65
2024/01/22 07:58:17;;;;;;;14.00;5.60;;;;;;;1.61;85.38;99100.64;107056;1281;72781;-65
2024/01/22 08:01:05;;;;;;;13.00;5.40;;;;;;;1.65;85.69;99087.30;107232;1280;57463;-65
2024/01/22 08:03:53;;;;;;;12.00;4.50;;;;;;;1.69;85.71;99084.98;107394;1280;61561;-63
2024/01/22 08:06:41;;;;;;;9.90;3.90;;;;;;;1.70;85.63;99071.95;107393;1280;72847;-67
2024/01/22 08:09:30;;;;;;;14.00;5.70;;;;;;;1.74;85.63;99068.77;107423;1279;68101;-65
2024/01/22 08:12:18;;;;;;;13.10;5.00;;;;;;;1.79;85.81;99066.03;107237;1281;72555;-66
2024/01/22 08:15:07;;;;;;;12.70;4.90;;;;;;;1.82;86.03;99068.81;107236;1279;57427;-64
2024/01/22 08:17:55;;;;;;;11.00;4.30;;;;;;;1.85;85.80;99086.32;107404;1280;58786;-64
2024/01/22 08:20:43;;;;;;;13.20;5.00;;;;;;;1.90;86.05;99081.87;107179;1280;73912;-63
2024/01/22 08:23:32;;;;;;;10.00;4.30;;;;;;;1.93;86.00;99077.30;107150;1280;66498;-66
2024/01/22 08:26:19;;;;;;;11.30;4.30;;;;;;;1.97;85.90;99078.46;107272;1279;71195;-65
2024/01/22 08:29:07;;;;;;;12.70;4.50;;;;;;;2.00;86.02;99063.25;107132;1280;58507;-64
2024/01/22 08:31:55;;;;;;;11.50;4.50;;;;;;;1.99;85.91;99049.99;106479;1280;1002217;-65
2024/01/22 08:34:43;;;;;;;13.00;4.70;;;;;;;1.99;86.83;99041.98;107040;1280;73053;-61
2024/01/22 08:37:31;;;;;;;10.60;5.00;;;;;;;1.95;87.83;99040.62;107129;1280;66651;-61
2024/01/22 08:40:21;;;;;;;12.70;4.30;;;;;;;1.94;88.51;99032.12;107295;1280;72625;-62
2024/01/22 08:43:10;;;;;;;12.10;3.10;;;;;;;1.92;89.25;99011.41;107257;1280;58836;-62
2024/01/22 08:45:58;;;;;;;14.00;4.80;;;;;;;1.91;90.37;99004.86;107055;1280;59324;-61
2024/01/22 08:48:46;;;;;;;11.60;5.00;;;;;;;1.90;90.73;99000.00;106362;1280;1002245;-62
2024/01/22 08:51:35;;;;;;;12.80;5.00;;;;;;;1.89;91.29;98990.95;107318;1280;68733;-60
2024/01/22 08:54:23;;;;;;;12.80;4.60;;;;;;;1.90;92.06;98991.41;107304;1280;72874;-61
2024/01/22 08:57:11;;;;;;;12.50;5.60;;;;;;;1.89;93.58;99003.18;107273;1280;57681;-61
2024/01/22 08:59:59;;;;;;;12.10;4.10;;;;;;;1.91;94.70;98998.71;107209;1279;59057;-63
2024/01/22 09:02:47;;;;;;;11.10;4.40;;;;;;;1.87;96.84;98999.79;107296;1279;71658;-61
2024/01/22 09:05:35;;;;;;;12.40;5.20;;;;;;;1.81;99.81;98994.57;107264;1280;67948;-61
2024/01/22 09:08:23;;;;;;;10.70;4.40;;;;;;;1.74;100.00;98988.31;106537;1279;1002307;-64
2024/01/22 09:11:10;;;;;;;13.20;4.50;;;;;;;1.65;100.00;98993.55;106514;1279;1002418;-60
2024/01/22 09:13:58;;;;;;;12.60;6.10;;;;;;;1.55;100.00;98986.41;107232;1280;60020;-61
2024/01/22 09:16:46;;;;;;;13.70;5.10;;;;;;;1.52;100.00;98977.55;107269;1280;72993;-61
2024/01/22 09:19:34;;;;;;;11.90;5.20;;;;;;;1.48;100.00;98967.44;107249;1279;67746;-61
2024/01/22 09:22:23;;;;;;;11.00;4.50;;;;;;;1.47;100.00;98964.55;107049;1279;72888;-61
2024/01/22 09:25:11;;;;;;;9.90;4.10;;;;;;;1.43;100.00;98964.58;107233;1280;58783;-64
2024/01/22 09:27:59;;;;;;;12.10;5.00;;;;;;;1.43;100.00;98955.15;107297;1279;60173;-63
2024/01/22 09:30:47;;;;;;;13.20;5.00;;;;;;;1.44;100.00;98952.79;107309;1280;72929;-62
2024/01/22 09:33:35;;;;;;;12.00;4.50;;;;;;;1.48;100.00;98947.36;106879;1280;67150;-60
2024/01/22 09:36:23;;;;;;;11.90;5.30;;;;;;;1.47;100.00;98945.46;107266;1280;71324;-61
2024/01/22 09:39:11;;;;;;;11.70;5.00;;;;;;;1.49;100.00;98932.58;106557;1280;1002944;-63
2024/01/22 09:42:00;;;;;;;9.60;3.70;;;;;;;1.54;100.00;98926.20;107299;1280;60342;-60
2024/01/22 09:44:49;;;;;;;12.70;5.00;;;;;;;1.57;100.00;98912.55;107229;1279;73115;-61
2024/01/22 09:47:37;;;;;;;12.60;5.10;;;;;;;1.58;100.00;98905.83;107198;1280;66667;-64
2024/01/22 09:50:27;;;;;;;12.50;4.80;;;;;;;1.60;100.00;98884.89;107282;1280;71597;-64
2024/01/22 09:53:16;;;;;;;11.80;4.90;;;;;;;1.62;100.00;98883.05;107267;1280;57392;-61
2024/01/22 09:56:06;;;;;;;11.60;4.40;;;;;;;1.62;100.00;98877.95;107276;1280;59996;-62
2024/01/22 09:59:00;;;;;;;10.90;4.10;;;;;;;1.65;100.00;98866.96;107278;1281;73143;-63
2024/01/22 10:01:50;;;;;;;12.60;4.90;;;;;;;1.64;100.00;98858.98;107213;1281;68143;-62
2024/01/22 10:04:38;;;;;;;13.50;4.90;;;;;;;1.68;100.00;98855.05;107203;1285;71508;-65
2024/01/22 10:07:26;;;;;;;12.40;5.00;;;;;;;1.73;100.00;98858.64;107257;1280;57404;-63
2024/01/22 10:10:15;;;;;;;12.60;4.30;;;;;;;1.79;100.00;98852.14;107306;1280;57770;-64
2024/01/22 10:13:08;;;;;;;9.50;4.30;;;;;;;1.83;100.00;98841.42;107212;1280;73798;-62
2024/01/22 10:16:10;;;;;;;9.40;4.00;;;;;;;1.87;100.00;98848.67;107224;1280;65854;-61
2024/01/22 10:19:07;;;;;;;12.00;4.30;;;;;;;1.91;100.00;98841.27;107135;1280;71772;-64
2024/01/22 10:22:01;;;;;;;12.70;4.60;;;;;;;1.92;100.00;98824.09;107251;1280;58464;-64
2024/01/22 10:25:02;;;;;;;10.90;4.50;;;;;;;1.96;100.00;98815.77;107099;1281;60432;-64
2024/01/22 10:27:50;;;;;;;12.10;4.70;;;;;;;1.97;100.00;98806.44;107062;1279;73381;-64
2024/01/22 10:30:39;;;;;;;10.50;4.70;;;;;;;1.99;100.00;98811.36;107228;1280;66594;-63
2024/01/22 10:33:27;;;;;;;12.30;4.80;;;;;;;2.03;100.00;98798.85;107174;1280;72058;-64
2024/01/22 10:36:21;;;;;;;10.40;4.40;;;;;;;2.09;100.00;98790.64;107265;1280;58749;-61
2024/01/22 10:39:09;;;;;;;9.90;3.70;;;;;;;2.15;100.00;98784.64;107280;1280;61483;-63
2024/01/22 10:42:11;;;;;;;10.00;4.50;;;;;;;2.22;100.00;98787.91;107306;1279;71565;-66
2024/01/22 10:45:00;;;;;;;9.10;3.50;;;;;;;2.27;100.00;98782.00;107294;1283;67743;-63
2024/01/22 10:47:48;;;;;;;10.70;4.10;;;;;;;2.34;100.00;98770.34;107279;1279;73427;-62
2024/01/22 10:50:38;;;;;;;9.50;4.10;;;;;;;2.40;100.00;98768.23;107095;1283;58907;-63
2024/01/22 10:53:27;;;;;;;10.60;4.70;;;;;;;2.46;100.00;98767.80;107293;1279;60107;-62
2024/01/22 10:56:18;;;;;;;10.30;4.20;;;;;;;2.49;100.00;98773.36;107129;1281;72898;-64
2024/01/22 10:59:16;;;;;;;11.00;4.20;;;;;;;2.49;100.00;98766.23;107271;1280;65646;-62
2024/01/22 11:02:15;;;;;;;10.00;5.70;;;;;;;2.51;100.00;98766.58;107073;1280;71241;-63
2024/01/22 11:05:14;;;;;;;10.70;4.00;;;;;;;2.51;100.00;98754.16;107082;1280;58855;-65
2024/01/22 11:08:05;;;;;;;9.80;4.10;;;;;;;2.54;100.00;98747.13;107284;1280;61076;-62
2024/01/22 11:10:55;;;;;;;10.40;4.40;;;;;;;2.59;100.00;98746.11;106962;1280;73110;-62
2024/01/22 11:13:49;;;;;;;10.50;4.60;;;;;;;2.70;100.00;98745.04;106413;1280;1002443;-63
2024/01/22 11:16:37;;;;;;;10.90;4.20;;;;;;;2.74;100.00;98744.77;107281;1280;72744;-64
2024/01/22 11:19:26;;;;;;;8.80;3.70;;;;;;;2.75;100.00;98739.45;107271;1279;57705;-62
2024/01/22 11:22:23;;;;;;;9.10;3.70;;;;;;;2.76;100.00;98734.68;107265;1280;57755;-65
2024/01/22 11:25:15;;;;;;;12.20;4.00;;;;;;;2.78;100.00;98727.77;107095;1279;72853;-63
2024/01/22 11:28:12;;;;;;;8.60;3.60;;;;;;;2.75;100.00;98727.60;107053;1280;67669;-64
2024/01/22 11:31:00;;;;;;;8.80;3.80;;;;;;;2.73;100.00;98722.09;107078;1281;73503;-63
2024/01/22 11:33:50;;;;;;;10.10;4.10;;;;;;;2.71;100.00;98715.73;107293;1279;57786;-63
2024/01/22 11:36:56;;;;;;;9.70;3.60;;;;;;;2.68;100.00;98707.55;107304;1279;60195;-62
2024/01/22 11:39:46;;;;;;;9.70;4.10;;;;;;;2.71;100.00;98699.44;107167;1279;71848;-63
2024/01/22 11:42:35;;;;;;;12.00;3.90;;;;;;;2.68;100.00;98699.45;107171;1281;68438;-65
2024/01/22 11:45:23;;;;;;;9.60;3.50;;;;;;;2.66;100.00;98694.83;107222;1280;73771;-68
2024/01/22 11:48:24;;;;;;;10.50;4.70;;;;;;;2.57;100.00;98696.88;107062;1280;57753;-63
2024/01/22 11:51:12;;;;;;;10.90;4.10;;;;;;;2.52;100.00;98697.34;107133;1282;61451;-64
2024/01/22 11:54:00;;;;;;;10.10;4.40;;;;;;;2.42;100.00;98700.52;107059;1279;72951;-62
2024/01/22 11:56:50;;;;;;;10.50;4.00;;;;;;;2.38;100.00;98681.66;107097;1280;67686;-62
2024/01/22 11:59:38;;;;;;;11.70;5.50;;;;;;;2.37;100.00;98703.45;107117;1280;73248;-63
2024/01/22 12:02:26;;;;;;;11.70;4.40;;;;;;;2.32;100.00;98701.84;107130;1279;58211;-64
2024/01/22 12:05:19;;;;;;;10.90;4.00;;;;;;;2.33;100.00;98695.15;107314;1279;60195;-63
2024/01/22 12:08:11;;;;;;;11.30;4.20;;;;;;;2.31;100.00;98689.81;106989;1280;71757;-63
2024/01/22 12:11:06;;;;;;;11.60;5.00;;;;;;;2.31;100.00;98679.66;107117;1279;67673;-62
2024/01/22 12:13:53;;;;;;;10.70;4.60;;;;;;;2.32;100.00;98679.95;107272;1280;72658;-62
2024/01/22 12:16:45;;;;;;;10.10;4.50;;;;;;;2.31;100.00;98679.33;107271;1279;58504;-64
2024/01/22 12:19:33;;;;;;;10.00;4.20;;;;;;;2.27;100.00;98681.20;107316;1279;61299;-62
2024/01/22 12:22:25;;;;;;;11.40;4.30;;;;;;;2.27;100.00;98676.98;107296;1279;73045;-62
2024/01/22 12:25:13;;;;;;;10.10;4.50;;;;;;;2.25;100.00;98672.90;107086;1279;67977;-62
2024/01/22 12:28:10;;;;;;;11.50;4.70;;;;;;;2.24;100.00;98670.69;107196;1279;71710;-63
2024/01/22 12:31:02;;;;;;;11.90;5.20;;;;;;;2.25;100.00;98671.16;107319;1279;57609;-62
2024/01/22 12:34:10;;;;;;;12.30;4.30;;;;;;;2.25;100.00;98650.64;107080;1279;60247;-64
2024/01/22 12:37:18;;;;;;;10.60;4.90;;;;;;;2.26;100.00;98664.46;107267;1279;72208;-62
2024/01/22 12:40:16;;;;;;;11.70;5.00;;;;;;;2.22;100.00;98665.73;107282;1279;69057;-63
2024/01/22 12:43:08;;;;;;;13.10;4.40;;;;;;;2.23;100.00;98650.08;107248;1279;73766;-63
2024/01/22 12:46:06;;;;;;;13.80;4.80;;;;;;;2.22;100.00;98654.52;107162;1280;57719;-65
2024/01/22 12:48:55;;;;;;;11.40;4.40;;;;;;;2.22;100.00;98645.10;107282;1279;59875;-62
2024/01/22 12:51:45;;;;;;;14.40;4.90;;;;;;;2.20;100.00;98635.80;107248;1279;72596;-64
2024/01/22 12:54:33;;;;;;;14.50;5.10;;;;;;;2.26;100.00;98638.52;107248;1279;68022;-65
2024/01/22 12:57:22;;;;;;;14.60;4.70;;;;;;;2.30;100.00;98630.20;107284;1279;73771;-61
2024/01/22 13:00:12;;;;;;;11.70;4.20;;;;;;;2.33;100.00;98629.14;107308;1280;58588;-64